createdAt,value
2018-12-29T00:01:48.375Z,68.92
2018-12-29T00:04:16.739Z,65.07
2018-12-29T00:06:45.099Z,62.10
2018-12-29T00:09:13.472Z,67.33
2018-12-29T00:11:41.860Z,66.27
2018-12-29T00:14:10.219Z,63.33
2018-12-29T00:16:38.598Z,67.33
2018-12-29T00:19:06.988Z,68.87
2018-12-29T00:21:35.353Z,62.60
2018-12-29T00:24:03.729Z,66.77
2018-12-29T00:26:32.126Z,68.07
2018-12-29T00:29:00.486Z,60.70
2018-12-29T00:31:28.858Z,61.13
2018-12-29T00:33:57.228Z,67.78
2018-12-29T00:36:25.603Z,70.60
2018-12-29T00:38:53.972Z,75.23
2018-12-29T00:41:22.356Z,75.30
2018-12-29T00:43:50.739Z,73.90
2018-12-29T00:46:19.095Z,69.80
2018-12-29T00:48:47.455Z,74.47
2018-12-29T00:51:15.813Z,75.20
2018-12-29T00:53:44.183Z,78.02
2018-12-29T00:56:12.542Z,69.40
2018-12-29T00:58:40.917Z,74.90
2018-12-29T01:01:09.290Z,78.47
2018-12-29T01:03:37.649Z,72.23
2018-12-29T01:06:06.741Z,71.07
2018-12-29T01:08:35.111Z,69.30
2018-12-29T01:11:03.487Z,70.30
2018-12-29T01:13:31.845Z,72.10
2018-12-29T01:16:00.204Z,75.10
2018-12-29T01:18:28.587Z,70.42
2018-12-29T01:20:56.968Z,75.97
2018-12-29T01:23:25.330Z,78.07
2018-12-29T01:25:53.711Z,71.40
2018-12-29T01:28:22.079Z,74.93
2018-12-29T01:30:50.449Z,68.73
2018-12-29T01:33:18.813Z,63.83
2018-12-29T01:35:47.188Z,62.50
2018-12-29T01:38:15.589Z,60.60
2018-12-29T01:40:43.922Z,75.13
2018-12-29T01:43:12.297Z,66.43
2018-12-29T01:45:40.665Z,65.20
2018-12-29T01:48:09.020Z,69.67
2018-12-29T01:50:37.400Z,61.83
2018-12-29T01:53:05.775Z,61.50
2018-12-29T01:55:34.142Z,60.40
2018-12-29T01:58:02.508Z,66.57
2018-12-29T02:00:30.869Z,58.77
2018-12-29T02:02:59.227Z,56.50
2018-12-29T02:05:27.592Z,56.57
2018-12-29T02:07:55.953Z,62.30
2018-12-29T02:10:24.338Z,62.27
2018-12-29T02:12:52.695Z,68.83
2018-12-29T02:15:24.671Z,56.17
2018-12-29T02:17:51.159Z,56.37
2018-12-29T02:20:19.529Z,57.08
2018-12-29T02:22:47.888Z,56.77
2018-12-29T02:25:16.253Z,60.20
2018-12-29T02:27:44.607Z,55.13
2018-12-29T02:30:12.988Z,53.65
2018-12-29T02:32:41.344Z,50.50
2018-12-29T02:35:09.711Z,51.43
2018-12-29T02:37:38.070Z,60.97
2018-12-29T02:40:27.345Z,55.07
2018-12-29T02:42:55.724Z,56.73
2018-12-29T02:45:24.104Z,54.18
2018-12-29T02:47:52.471Z,59.15
2018-12-29T02:50:20.849Z,56.75
2018-12-29T02:52:49.213Z,56.20
2018-12-29T02:55:17.587Z,62.75
2018-12-29T02:57:45.957Z,61.63
2018-12-29T03:00:14.333Z,60.10
2018-12-29T03:02:42.694Z,64.67
2018-12-29T03:05:11.064Z,74.35
2018-12-29T03:07:39.432Z,69.37
2018-12-29T03:10:07.803Z,62.83
2018-12-29T03:12:36.170Z,63.60
2018-12-29T03:15:04.533Z,70.80
2018-12-29T03:17:32.904Z,69.62
2018-12-29T03:20:01.275Z,63.70
2018-12-29T03:22:29.640Z,77.77
2018-12-29T03:24:58.015Z,79.40
2018-12-29T03:27:26.419Z,63.92
2018-12-29T03:29:54.795Z,64.67
2018-12-29T03:32:23.168Z,70.33
2018-12-29T03:34:51.536Z,65.47
2018-12-29T03:37:19.900Z,67.75
2018-12-29T03:39:48.269Z,79.50
2018-12-29T03:42:16.639Z,65.37
2018-12-29T03:44:45.001Z,64.62
2018-12-29T03:47:13.368Z,76.50
2018-12-29T03:49:41.723Z,69.23
2018-12-29T03:52:10.099Z,55.93
2018-12-29T03:54:38.477Z,58.45
2018-12-29T03:57:06.849Z,62.10
2018-12-29T03:59:35.230Z,62.40
2018-12-29T04:02:22.935Z,61.60
2018-12-29T04:04:51.308Z,59.00
2018-12-29T04:07:19.665Z,62.43
2018-12-29T04:09:48.056Z,64.30
2018-12-29T04:12:16.409Z,59.83
2018-12-29T04:14:44.858Z,62.63
2018-12-29T04:17:13.209Z,54.40
2018-12-29T04:19:41.618Z,55.12
2018-12-29T04:22:09.942Z,56.50
2018-12-29T04:24:38.327Z,56.45
2018-12-29T04:27:06.693Z,48.20
2018-12-29T04:29:35.055Z,53.95
2018-12-29T04:32:03.416Z,57.07
2018-12-29T04:34:31.793Z,45.70
2018-12-29T04:37:00.158Z,47.33
2018-12-29T04:39:28.525Z,41.43
2018-12-29T04:41:56.891Z,53.67
2018-12-29T04:44:25.261Z,42.23
2018-12-29T04:46:53.627Z,43.87
2018-12-29T04:49:22.008Z,45.23
2018-12-29T04:51:50.379Z,40.63
2018-12-29T04:54:18.750Z,46.30
2018-12-29T04:56:47.119Z,41.80
2018-12-29T04:59:15.482Z,46.40
2018-12-29T05:01:43.848Z,44.17
2018-12-29T05:04:12.236Z,41.55
2018-12-29T05:06:53.062Z,39.60
2018-12-29T05:09:21.434Z,46.80
2018-12-29T05:11:49.801Z,45.10
2018-12-29T05:14:18.167Z,45.50
2018-12-29T05:16:46.520Z,42.63
2018-12-29T05:19:14.892Z,45.87
2018-12-29T05:21:43.282Z,56.37
2018-12-29T05:24:11.664Z,54.10
2018-12-29T05:26:40.049Z,47.77
2018-12-29T05:29:08.434Z,47.10
2018-12-29T05:31:36.799Z,52.08
2018-12-29T05:34:05.171Z,44.80
2018-12-29T05:36:33.535Z,47.43
2018-12-29T05:39:01.900Z,52.47
2018-12-29T05:41:30.269Z,50.08
2018-12-29T05:43:58.649Z,50.30
2018-12-29T05:46:27.016Z,52.77
2018-12-29T05:48:55.405Z,52.43
2018-12-29T05:51:23.872Z,48.85
2018-12-29T05:53:52.256Z,44.77
2018-12-29T05:56:20.738Z,45.50
2018-12-29T05:58:49.184Z,40.95
2018-12-29T06:01:17.539Z,46.30
2018-12-29T06:03:45.936Z,43.02
2018-12-29T06:06:14.300Z,40.25
2018-12-29T06:08:42.687Z,41.30
2018-12-29T06:11:11.073Z,37.98
2018-12-29T06:13:40.490Z,44.33
2018-12-29T06:16:08.880Z,42.73
2018-12-29T06:18:37.260Z,46.17
2018-12-29T06:21:05.634Z,38.77
2018-12-29T06:23:34.023Z,35.97
2018-12-29T06:26:02.396Z,38.30
2018-12-29T06:28:30.765Z,42.03
2018-12-29T06:30:59.157Z,45.23
2018-12-29T06:33:27.549Z,38.63
2018-12-29T06:35:55.917Z,39.40
2018-12-29T06:38:24.296Z,38.60
2018-12-29T06:40:52.673Z,38.43
2018-12-29T06:43:21.049Z,35.40
2018-12-29T06:45:49.390Z,31.73
2018-12-29T06:48:17.786Z,31.20
2018-12-29T06:50:46.213Z,28.17
2018-12-29T06:53:14.580Z,32.13
2018-12-29T06:55:42.954Z,28.55
2018-12-29T06:58:11.317Z,29.37
2018-12-29T07:00:39.667Z,26.03
2018-12-29T07:03:08.053Z,29.10
2018-12-29T07:05:36.425Z,28.03
2018-12-29T07:08:04.786Z,27.37
2018-12-29T07:10:33.147Z,30.60
2018-12-29T07:13:01.518Z,30.87
2018-12-29T07:15:29.896Z,36.20
2018-12-29T07:17:58.279Z,32.03
2018-12-29T07:20:26.636Z,30.90
2018-12-29T07:22:55.005Z,32.27
2018-12-29T07:25:23.380Z,43.13
2018-12-29T07:27:51.759Z,38.20
2018-12-29T07:30:20.144Z,41.27
2018-12-29T07:32:48.503Z,50.33
2018-12-29T07:35:16.951Z,47.83
2018-12-29T07:37:45.333Z,55.67
2018-12-29T07:40:13.741Z,57.17
2018-12-29T07:42:42.127Z,58.73
2018-12-29T07:45:10.521Z,56.87
2018-12-29T07:47:38.913Z,50.92
2018-12-29T07:50:07.276Z,58.78
2018-12-29T07:52:35.627Z,56.77
2018-12-29T07:58:05.556Z,69.85
2018-12-29T08:00:33.916Z,68.50
2018-12-29T08:03:02.289Z,58.77
2018-12-29T08:05:30.643Z,63.93
2018-12-29T08:07:59.006Z,56.20
2018-12-29T08:10:27.398Z,60.77
2018-12-29T08:12:55.794Z,60.63
2018-12-29T08:15:24.155Z,65.13
2018-12-29T08:17:52.528Z,66.30
2018-12-29T08:20:21.083Z,62.37
2018-12-29T08:22:49.411Z,60.37
2018-12-29T08:25:17.775Z,65.85
2018-12-29T08:27:46.146Z,63.63
2018-12-29T08:30:14.499Z,61.30
2018-12-29T08:32:42.899Z,61.80
2018-12-29T08:35:11.263Z,64.72
2018-12-29T08:37:39.656Z,55.80
2018-12-29T08:40:08.010Z,52.97
2018-12-29T08:42:36.376Z,54.93
2018-12-29T08:45:04.988Z,54.93
2018-12-29T08:47:33.359Z,54.33
2018-12-29T08:50:01.748Z,61.07
2018-12-29T08:52:30.125Z,49.10
2018-12-29T08:54:58.497Z,45.00
2018-12-29T08:57:26.857Z,55.43
2018-12-29T08:59:55.237Z,55.53
2018-12-29T09:02:23.609Z,44.73
2018-12-29T09:04:52.034Z,42.40
2018-12-29T09:07:20.396Z,45.47
2018-12-29T09:09:48.773Z,31.40
2018-12-29T09:12:17.532Z,27.55
2018-12-29T09:14:45.919Z,29.83
2018-12-29T09:17:14.311Z,33.15
2018-12-29T09:19:42.704Z,30.72
2018-12-29T09:22:11.072Z,26.87
2018-12-29T09:24:39.462Z,23.67
2018-12-29T09:27:07.849Z,30.20
2018-12-29T09:29:36.213Z,20.77
2018-12-29T09:32:04.584Z,22.02
2018-12-29T09:34:32.967Z,23.43
2018-12-29T09:37:01.348Z,23.87
2018-12-29T09:39:29.730Z,27.43
2018-12-29T09:41:58.105Z,26.05
2018-12-29T09:44:26.495Z,23.23
2018-12-29T09:46:55.039Z,24.80
2018-12-29T09:49:23.451Z,28.80
2018-12-29T09:51:51.815Z,29.07
2018-12-29T09:54:20.200Z,34.90
2018-12-29T09:56:48.585Z,31.63
2018-12-29T09:59:16.963Z,32.67
2018-12-29T10:01:45.344Z,32.37
2018-12-29T10:04:13.710Z,30.13
2018-12-29T10:06:42.082Z,32.43
2018-12-29T10:09:10.475Z,33.45
2018-12-29T10:11:38.844Z,30.40
2018-12-29T10:14:07.209Z,34.10
2018-12-29T10:16:35.594Z,32.13
2018-12-29T10:19:03.968Z,39.80
2018-12-29T10:21:32.344Z,35.87
2018-12-29T10:24:00.718Z,39.20
2018-12-29T10:26:29.104Z,37.73
2018-12-29T10:28:57.492Z,39.27
2018-12-29T10:31:25.881Z,46.23
2018-12-29T10:33:55.329Z,34.80
2018-12-29T10:36:24.356Z,43.10
2018-12-29T10:38:52.725Z,40.80
2018-12-29T10:41:21.085Z,37.85
2018-12-29T10:43:49.465Z,41.23
2018-12-29T10:46:17.823Z,38.70
2018-12-29T10:48:46.222Z,38.47
2018-12-29T10:51:14.585Z,39.30
2018-12-29T10:53:43.376Z,45.07
2018-12-29T10:56:11.773Z,36.50
2018-12-29T10:58:40.137Z,42.20
2018-12-29T11:01:08.505Z,40.38
2018-12-29T11:03:36.904Z,38.28
2018-12-29T11:06:05.277Z,38.13
2018-12-29T11:08:33.671Z,47.80
2018-12-29T11:11:02.053Z,45.67
2018-12-29T11:13:30.421Z,41.00
2018-12-29T11:15:58.799Z,42.62
2018-12-29T11:18:27.179Z,41.27
2018-12-29T11:20:55.545Z,41.10
2018-12-29T11:23:23.917Z,42.17
2018-12-29T11:25:52.304Z,40.78
2018-12-29T11:28:20.665Z,36.27
2018-12-29T11:30:49.046Z,38.73
2018-12-29T11:33:17.429Z,32.97
2018-12-29T11:35:45.810Z,40.23
2018-12-29T11:38:14.173Z,34.60
2018-12-29T11:40:42.558Z,39.60
2018-12-29T11:43:10.940Z,34.80
2018-12-29T11:45:39.300Z,34.97
2018-12-29T11:48:07.671Z,32.80
2018-12-29T11:50:36.032Z,32.30
2018-12-29T11:53:04.418Z,35.03
2018-12-29T11:55:32.798Z,35.05
2018-12-29T11:58:01.375Z,33.73
2018-12-29T12:00:29.761Z,35.10
2018-12-29T12:02:58.137Z,33.05
2018-12-29T12:05:26.500Z,33.70
2018-12-29T12:07:54.856Z,28.57
2018-12-29T12:10:23.413Z,31.53
2018-12-29T12:12:51.800Z,35.40
2018-12-29T12:15:20.180Z,31.87
2018-12-29T12:17:48.554Z,33.27
2018-12-29T12:20:16.934Z,37.63
2018-12-29T12:22:47.049Z,30.45
2018-12-29T12:25:15.523Z,35.08
2018-12-29T12:27:45.535Z,30.73
2018-12-29T12:30:13.914Z,29.13
2018-12-29T12:32:42.276Z,31.57
2018-12-29T12:35:10.657Z,32.13
2018-12-29T12:37:39.072Z,38.53
2018-12-29T12:40:07.459Z,31.33
2018-12-29T12:42:35.850Z,33.70
2018-12-29T12:45:04.458Z,32.53
2018-12-29T12:47:33.063Z,34.43
2018-12-29T12:50:01.448Z,32.58
2018-12-29T12:52:31.567Z,35.38
2018-12-29T12:55:00.031Z,37.03
2018-12-29T12:57:28.502Z,41.95
2018-12-29T12:59:58.599Z,48.68
2018-12-29T13:02:28.707Z,44.90
2018-12-29T13:04:57.077Z,53.20
2018-12-29T13:07:25.447Z,54.67
2018-12-29T13:09:53.803Z,53.70
2018-12-29T13:12:22.170Z,55.80
2018-12-29T13:14:52.282Z,54.90
2018-12-29T13:17:20.672Z,48.03
2018-12-29T13:19:49.041Z,49.25
2018-12-29T13:22:17.403Z,51.43
2018-12-29T13:24:45.809Z,53.20
2018-12-29T13:27:14.256Z,54.30
2018-12-29T13:29:42.618Z,46.20
2018-12-29T13:32:11.007Z,43.73
2018-12-29T13:34:39.393Z,47.37
2018-12-29T13:37:07.771Z,43.73
2018-12-29T13:42:07.037Z,53.52
2018-12-29T13:44:35.414Z,46.73
2018-12-29T13:47:03.796Z,57.30
2018-12-29T13:49:32.165Z,49.20
2018-12-29T13:52:00.551Z,54.42
2018-12-29T13:54:28.929Z,54.67
2018-12-29T13:56:57.291Z,56.67
2018-12-29T13:59:25.667Z,57.43
2018-12-29T14:01:54.056Z,46.70
2018-12-29T14:04:22.454Z,55.67
2018-12-29T14:06:50.814Z,54.53
2018-12-29T14:09:31.403Z,54.90
2018-12-29T14:11:59.783Z,55.77
2018-12-29T14:14:28.360Z,48.33
2018-12-29T14:16:56.741Z,58.30
2018-12-29T14:19:25.102Z,56.93
2018-12-29T14:21:53.488Z,54.77
2018-12-29T14:24:21.863Z,54.98
2018-12-29T14:26:50.246Z,57.45
2018-12-29T14:29:18.620Z,58.35
2018-12-29T14:31:47.005Z,53.02
2018-12-29T14:34:15.430Z,56.80
2018-12-29T14:36:43.829Z,56.00
2018-12-29T14:39:12.199Z,56.07
2018-12-29T14:41:40.566Z,54.90
2018-12-29T14:44:28.375Z,57.73
2018-12-29T14:46:56.739Z,59.30
2018-12-29T14:49:25.100Z,64.77
2018-12-29T14:51:53.469Z,65.17
2018-12-29T14:54:21.842Z,64.37
2018-12-29T14:56:50.210Z,67.63
2018-12-29T14:59:18.569Z,64.73
2018-12-29T15:01:46.958Z,63.10
2018-12-29T15:04:15.310Z,61.67
2018-12-29T15:06:43.681Z,68.43
2018-12-29T15:09:12.050Z,65.67
2018-12-29T15:11:40.420Z,65.67
2018-12-29T15:14:08.780Z,66.67
2018-12-29T15:16:38.868Z,66.50
2018-12-29T15:19:07.223Z,65.33
2018-12-29T15:21:35.871Z,67.07
2018-12-29T15:24:04.240Z,62.00
2018-12-29T15:26:32.622Z,63.30
2018-12-29T15:29:00.974Z,64.17
2018-12-29T15:31:29.340Z,66.67
2018-12-29T15:33:57.717Z,66.43
2018-12-29T15:36:27.842Z,66.70
2018-12-29T15:38:56.196Z,69.97
2018-12-29T15:41:24.569Z,67.27
2018-12-29T15:46:33.705Z,67.00
2018-12-29T15:49:02.102Z,64.05
2018-12-29T15:51:30.470Z,67.10
2018-12-29T15:53:58.856Z,72.55
2018-12-29T15:56:27.427Z,62.05
2018-12-29T15:58:55.813Z,67.77
2018-12-29T16:01:24.448Z,66.20
2018-12-29T16:03:52.812Z,59.83
2018-12-29T16:06:21.174Z,65.77
2018-12-29T16:08:49.542Z,70.30
2018-12-29T16:11:26.122Z,65.10
2018-12-29T16:13:49.708Z,61.53
2018-12-29T16:16:18.104Z,64.25
2018-12-29T16:18:46.466Z,58.30
2018-12-29T16:21:16.569Z,64.60
2018-12-29T16:23:44.973Z,44.90
2018-12-29T16:26:13.354Z,45.25
2018-12-29T16:28:43.391Z,47.48
2018-12-29T16:31:11.764Z,43.67
2018-12-29T16:33:41.772Z,49.23
2018-12-29T16:36:10.387Z,44.83
2018-12-29T16:38:38.748Z,47.55
2018-12-29T16:41:07.311Z,51.77
2018-12-29T16:43:35.682Z,48.37
2018-12-29T16:46:04.055Z,49.18
2018-12-29T16:48:32.429Z,49.67
2018-12-29T16:51:02.523Z,44.37
2018-12-29T16:53:30.947Z,43.40
2018-12-29T16:55:59.574Z,43.40
2018-12-29T16:58:27.956Z,44.07
2018-12-29T17:00:56.508Z,46.77
2018-12-29T17:03:24.862Z,40.45
2018-12-29T17:05:53.231Z,46.10
2018-12-29T17:08:21.590Z,46.47
2018-12-29T17:10:50.063Z,41.00
2018-12-29T17:13:18.461Z,42.53
2018-12-29T17:15:46.833Z,44.75
2018-12-29T17:18:15.225Z,37.40
2018-12-29T17:20:43.608Z,41.93
2018-12-29T17:23:12.581Z,46.37
2018-12-29T17:26:03.008Z,38.90
2018-12-29T17:28:33.112Z,43.37
2018-12-29T17:31:01.473Z,42.30
2018-12-29T17:33:29.841Z,39.25
2018-12-29T17:35:58.232Z,39.43
2018-12-29T17:38:26.726Z,45.67
2018-12-29T17:41:16.100Z,41.35
2018-12-29T17:43:46.166Z,40.95
2018-12-29T17:46:14.553Z,41.83
2018-12-29T17:48:42.936Z,42.27
2018-12-29T17:51:11.278Z,47.33
2018-12-29T17:53:47.739Z,41.25
2018-12-29T17:56:10.569Z,42.40
2018-12-29T17:58:38.960Z,39.00
2018-12-29T18:01:07.360Z,34.40
2018-12-29T18:03:35.725Z,38.70
2018-12-29T18:08:51.445Z,40.73
2018-12-29T18:14:02.332Z,39.95
2018-12-29T18:16:30.745Z,35.90
2018-12-29T18:18:59.118Z,36.20
2018-12-29T18:25:02.422Z,40.73
2018-12-29T18:30:43.111Z,42.98
2018-12-29T18:36:33.246Z,41.85
2018-12-29T18:42:27.681Z,41.90
2018-12-29T18:44:56.051Z,38.23
2018-12-29T18:47:24.431Z,39.00
2018-12-29T18:49:52.821Z,39.00
2018-12-29T18:52:22.931Z,41.58
2018-12-29T18:54:51.324Z,40.00
2018-12-29T18:57:19.696Z,36.53
2018-12-29T18:59:48.062Z,39.43
2018-12-29T19:02:16.461Z,39.33
2018-12-29T19:04:44.844Z,31.93
2018-12-29T19:07:13.203Z,30.40
2018-12-29T19:09:41.568Z,37.20
2018-12-29T19:12:11.254Z,31.62
2018-12-29T19:14:40.053Z,34.23
2018-12-29T19:17:08.436Z,29.42
2018-12-29T19:19:46.033Z,28.40
2018-12-29T19:22:08.682Z,29.65
2018-12-29T19:24:37.050Z,27.87
2018-12-29T19:27:05.436Z,31.20
2018-12-29T19:29:33.830Z,25.80
2018-12-29T19:32:02.457Z,29.57
2018-12-29T19:34:32.577Z,24.13
2018-12-29T19:37:02.692Z,26.30
2018-12-29T19:39:32.786Z,26.73
2018-12-29T19:42:01.164Z,26.03
2018-12-29T19:44:31.256Z,25.93
2018-12-29T19:46:59.620Z,25.80
2018-12-29T19:49:29.737Z,22.30
2018-12-29T19:51:58.110Z,23.67
2018-12-29T19:54:28.194Z,22.27
2018-12-29T19:56:58.312Z,21.00
2018-12-29T19:59:28.420Z,23.97
2018-12-29T20:01:56.788Z,21.60
2018-12-29T20:04:25.145Z,20.95
2018-12-29T20:06:55.252Z,17.90
2018-12-29T20:09:23.627Z,16.60
2018-12-29T20:11:52.056Z,19.50
2018-12-29T20:14:20.428Z,11.50
2018-12-29T20:16:48.800Z,8.30
2018-12-29T20:19:17.182Z,8.37
2018-12-29T20:21:45.594Z,7.63
2018-12-29T20:24:13.961Z,10.85
2018-12-29T20:26:42.295Z,5.37
2018-12-29T20:29:10.670Z,7.20
2018-12-29T20:31:39.046Z,7.20
2018-12-29T20:34:07.421Z,5.45
2018-12-29T20:36:35.794Z,3.93
2018-12-29T20:42:12.955Z,4.28
2018-12-29T20:44:43.022Z,4.67
2018-12-29T20:47:11.393Z,2.10
2018-12-29T20:49:39.749Z,4.93
2018-12-29T20:52:08.117Z,4.40
2018-12-29T20:54:36.525Z,5.62
2018-12-29T20:57:04.887Z,2.67
2018-12-29T20:59:33.266Z,5.37
2018-12-29T21:02:01.627Z,4.00
2018-12-29T21:04:29.983Z,5.83
2018-12-29T21:06:58.340Z,2.20
2018-12-29T21:09:26.710Z,3.17
2018-12-29T21:11:55.069Z,2.97
2018-12-29T21:14:23.429Z,2.00
2018-12-29T21:16:51.795Z,2.83
2018-12-29T21:19:20.154Z,4.47
2018-12-29T21:21:48.512Z,1.93
2018-12-29T21:24:16.868Z,2.60
2018-12-29T21:26:46.960Z,2.03
2018-12-29T21:29:15.342Z,2.33
2018-12-29T21:31:43.709Z,3.20
2018-12-29T21:34:12.081Z,1.97
2018-12-29T21:36:40.461Z,1.90
2018-12-29T21:39:08.826Z,2.03
2018-12-29T21:41:37.176Z,3.22
2018-12-29T21:44:05.539Z,4.00
2018-12-29T21:46:33.910Z,3.33
2018-12-29T21:49:02.272Z,2.00
2018-12-29T21:51:30.631Z,2.43
2018-12-29T21:53:58.973Z,3.50
2018-12-29T21:56:27.334Z,2.70
2018-12-29T21:58:55.698Z,3.87
2018-12-29T22:01:24.040Z,2.80
2018-12-29T22:03:52.432Z,4.40
2018-12-29T22:06:20.804Z,3.90
2018-12-29T22:08:50.877Z,6.03
2018-12-29T22:11:19.250Z,3.20
2018-12-29T22:13:47.594Z,4.07
2018-12-29T22:16:15.952Z,5.70
2018-12-29T22:18:44.310Z,4.30
2018-12-29T22:21:12.664Z,3.37
2018-12-29T22:23:42.043Z,3.33
2018-12-29T22:26:10.412Z,2.85
2018-12-29T22:28:38.778Z,4.50
2018-12-29T22:31:07.144Z,3.03
2018-12-29T22:33:35.494Z,3.17
2018-12-29T22:36:05.578Z,6.50
2018-12-29T22:38:33.926Z,7.73
2018-12-29T22:41:02.329Z,6.80
2018-12-29T22:43:30.635Z,3.40
2018-12-29T22:45:58.999Z,13.03
2018-12-29T22:48:27.346Z,3.43
2018-12-29T22:50:55.717Z,5.50
2018-12-29T22:53:24.087Z,4.17
2018-12-29T22:55:52.451Z,7.50
2018-12-29T22:58:20.802Z,5.77
2018-12-29T23:01:29.209Z,5.65
2018-12-29T23:03:57.559Z,7.67
2018-12-29T23:06:25.934Z,10.23
2018-12-29T23:08:54.320Z,12.63
2018-12-29T23:11:22.684Z,21.43
2018-12-29T23:13:51.046Z,9.48
2018-12-29T23:16:19.421Z,10.43
2018-12-29T23:18:49.535Z,10.28
2018-12-29T23:21:17.908Z,7.70
2018-12-29T23:23:46.286Z,15.30
2018-12-29T23:26:14.643Z,16.67
2018-12-29T23:28:43.010Z,13.40
2018-12-29T23:31:11.354Z,12.63
2018-12-29T23:33:40.605Z,9.55
2018-12-29T23:36:08.961Z,14.75
2018-12-29T23:38:37.319Z,18.30
2018-12-29T23:41:05.683Z,21.03
2018-12-29T23:43:35.779Z,15.57
2018-12-29T23:46:04.152Z,14.37
2018-12-29T23:48:32.525Z,15.83
2018-12-29T23:51:05.567Z,24.20
2018-12-29T23:53:31.005Z,9.23
2018-12-29T23:56:01.096Z,21.20
2018-12-29T23:58:29.460Z,11.70
